Quincy, Illinois
Current Conditions -  °F | °C
As of 12:54 PM on Friday 31 Oct 2014 (Local Time) from KUIN Reporting Station
Clear Clear  
Wind Chill:   Ceiling: Unl
Heat Index:   Visibility: 10mi
Dew Point: -6°   Wind: 17mph
Humidity: 45%   Direction: 340°NNW
Pressure: 30.35"   Gusts: 30mph
Location:  39.94°N, 91.39°W
Report Text: KUIN 311754Z AUTO 34015G26KT 10SM CLR 06/M06 A3035 RMK AO2 PK WND 32026/1746 SLP279 T00561056 10056 20000 50002
Loading
Personal Weather Stations






























Interactive Weather Map
Tropical Storm Tracking
New forecast layout! Learn more

10-Day Weather Forecast

Advertisements
Track Severe Weather on mobile